Time;durP1;ratioP1;P1;durP2;ratioP2;P2;SDS_P1;SDS_P2;PMS_P1;PMS_P2;Temp;Humidity;BMP_temperature;BMP_pressure;BME280_temperature;BME280_humidity;BME280_pressure;Samples;Min_cycle;Max_cycle;Signal;HPM_P1;HPM_P2
2021/07/11 00:01:12;;;;;;;59.40;32.47;;;;;;;16.17;82.74;101713.31;5027912;28;20048;-49
2021/07/11 00:03:39;;;;;;;58.88;31.20;;;;;;;16.18;82.97;101712.44;5027869;28;20031;-49
2021/07/11 00:06:05;;;;;;;54.08;29.17;;;;;;;16.19;82.70;101701.94;5027925;28;20591;-49
2021/07/11 00:08:30;;;;;;;55.17;30.85;;;;;;;16.20;82.53;101708.09;5022570;28;20131;-51
2021/07/11 00:10:56;;;;;;;51.70;30.02;;;;;;;16.20;82.50;101708.97;5025110;28;20035;-50
2021/07/11 00:13:21;;;;;;;53.08;30.20;;;;;;;16.21;82.36;101700.19;5020451;28;20330;-48
2021/07/11 00:15:47;;;;;;;57.00;31.70;;;;;;;16.23;82.69;101702.81;5027776;28;20061;-49
2021/07/11 00:18:13;;;;;;;54.13;30.60;;;;;;;16.19;82.97;101704.56;5021579;28;20025;-50
2021/07/11 00:20:38;;;;;;;57.38;30.10;;;;;;;16.20;82.89;101694.94;5007451;28;20025;-50
2021/07/11 00:23:04;;;;;;;56.53;29.52;;;;;;;16.20;83.15;101701.06;5023470;28;20516;-51
2021/07/11 00:25:30;;;;;;;52.30;29.48;;;;;;;16.21;82.92;101704.59;5009419;28;20036;-47
2021/07/11 00:27:55;;;;;;;53.15;28.40;;;;;;;16.23;82.91;101710.69;5020780;28;20075;-53
2021/07/11 00:30:23;;;;;;;57.75;30.23;;;;;;;16.23;82.53;101700.19;5023214;28;20128;-47
2021/07/11 00:32:48;;;;;;;54.42;29.08;;;;;;;16.23;83.26;101703.69;5027995;28;20025;-49
2021/07/11 00:35:14;;;;;;;56.45;30.95;;;;;;;16.23;83.27;101706.31;5016037;28;20334;-57
2021/07/11 00:37:41;;;;;;;56.35;30.45;;;;;;;16.27;83.92;101708.97;5024227;28;20037;-47
2021/07/11 00:40:08;;;;;;;57.95;30.17;;;;;;;16.27;84.00;101706.34;5017653;28;20035;-51
2021/07/11 00:42:34;;;;;;;57.17;30.35;;;;;;;16.27;84.07;101707.22;5004719;28;20033;-49
2021/07/11 00:44:59;;;;;;;57.10;29.90;;;;;;;16.27;84.08;101717.75;5029130;28;20056;-48
2021/07/11 00:47:25;;;;;;;57.05;30.30;;;;;;;16.28;84.10;101713.38;5025370;28;20421;-50
2021/07/11 00:49:50;;;;;;;59.10;30.67;;;;;;;16.29;83.98;101715.09;5010999;28;20278;-48
2021/07/11 00:52:16;;;;;;;69.22;35.95;;;;;;;16.29;83.45;101712.47;5023536;28;20036;-49
2021/07/11 00:54:42;;;;;;;66.43;35.63;;;;;;;16.31;83.65;101713.38;5007908;28;20624;-48
2021/07/11 00:57:07;;;;;;;67.72;35.75;;;;;;;16.30;83.83;101715.13;5023636;28;20623;-49
2021/07/11 00:59:33;;;;;;;64.68;34.70;;;;;;;16.32;83.83;101715.13;5025949;28;20276;-49
2021/07/11 01:02:10;;;;;;;59.38;32.00;;;;;;;16.34;83.58;101714.28;5022862;28;20036;-48
2021/07/11 01:04:39;;;;;;;68.75;36.22;;;;;;;16.34;84.10;101713.41;5021441;28;20028;-48
2021/07/11 01:07:07;;;;;;;63.95;33.60;;;;;;;16.34;84.00;101711.66;5011696;28;20029;-48
2021/07/11 01:09:39;;;;;;;69.88;34.92;;;;;;;16.34;84.45;101714.28;5010696;28;20025;-51
2021/07/11 01:12:06;;;;;;;76.95;35.60;;;;;;;16.35;84.88;101707.22;5009598;28;20844;-51
2021/07/11 01:14:32;;;;;;;79.90;36.75;;;;;;;16.33;85.45;101709.88;5005706;28;20541;-52
2021/07/11 01:16:58;;;;;;;81.05;37.45;;;;;;;16.32;85.84;101715.13;5008234;28;20029;-50
2021/07/11 01:20:01;;;;;;;73.25;35.90;;;;;;;16.30;86.23;101717.75;5013654;28;20777;-50
2021/07/11 01:22:30;;;;;;;81.57;36.63;;;;;;;16.30;86.40;101720.38;4972285;28;20042;-50
2021/07/11 01:25:06;;;;;;;83.03;37.08;;;;;;;16.29;86.36;101720.38;5021134;28;20120;-49
2021/07/11 01:27:32;;;;;;;82.80;37.78;;;;;;;16.28;86.50;101713.38;5022535;28;20049;-48
2021/07/11 01:29:58;;;;;;;76.38;36.65;;;;;;;16.27;86.21;101719.50;5025212;28;20033;-52
2021/07/11 01:32:25;;;;;;;77.13;36.38;;;;;;;16.25;86.18;101716.84;5004124;28;20389;-48
2021/07/11 01:34:50;;;;;;;84.57;38.08;;;;;;;16.24;86.98;101715.09;5008315;28;20560;-51
2021/07/11 01:37:16;;;;;;;81.88;37.35;;;;;;;16.21;86.85;101718.63;5001901;28;20045;-48
2021/07/11 01:39:44;;;;;;;88.38;37.92;;;;;;;16.19;86.66;101715.09;5008504;28;20118;-51
2021/07/11 01:42:11;;;;;;;83.32;37.25;;;;;;;16.16;86.97;101715.06;5020121;28;20036;-48
2021/07/11 01:44:37;;;;;;;85.88;37.88;;;;;;;16.16;86.81;101725.59;5023432;28;20041;-48
2021/07/11 01:47:03;;;;;;;79.57;36.05;;;;;;;16.17;87.00;101718.56;5012879;28;20085;-50
2021/07/11 01:49:29;;;;;;;76.40;36.33;;;;;;;16.13;86.53;101711.56;5020998;28;20300;-49
2021/07/11 01:51:54;;;;;;;80.22;35.65;;;;;;;16.13;86.42;101720.31;5008131;28;20119;-48
2021/07/11 01:54:20;;;;;;;68.85;33.58;;;;;;;16.14;86.64;101718.56;5004438;28;20126;-48
2021/07/11 01:56:45;;;;;;;80.50;37.05;;;;;;;16.14;86.89;101722.09;5023259;28;20507;-52
2021/07/11 01:59:11;;;;;;;63.88;32.35;;;;;;;16.13;86.92;101722.06;5018465;28;20078;-49
2021/07/11 02:01:37;;;;;;;66.63;32.35;;;;;;;16.14;86.86;101729.97;5012280;28;20533;-50
2021/07/11 02:04:02;;;;;;;69.93;32.97;;;;;;;16.14;87.10;101729.09;5016286;28;20025;-48
2021/07/11 02:06:28;;;;;;;74.65;34.38;;;;;;;16.15;87.16;101733.50;5021789;28;20210;-49
2021/07/11 02:08:53;;;;;;;66.57;32.80;;;;;;;16.14;86.60;101734.38;5021284;28;20212;-49
2021/07/11 02:11:19;;;;;;;67.72;33.42;;;;;;;16.16;86.67;101737.88;5009294;28;20497;-53
2021/07/11 02:13:51;;;;;;;75.90;35.45;;;;;;;16.17;87.24;101745.75;5028043;28;20102;-52
2021/07/11 02:16:24;;;;;;;80.55;35.65;;;;;;;16.16;87.04;101741.38;5004096;28;20379;-47
2021/07/11 02:18:52;;;;;;;77.32;34.95;;;;;;;16.18;87.06;101739.63;5019956;28;20040;-52
2021/07/11 02:21:20;;;;;;;90.93;38.00;;;;;;;16.17;87.30;101737.00;5012296;28;20033;-50
2021/07/11 02:23:45;;;;;;;90.63;38.97;;;;;;;16.15;87.67;101738.75;5021647;28;20029;-48
2021/07/11 02:26:11;;;;;;;97.78;40.13;;;;;;;16.14;87.65;101732.63;5008048;28;20021;-49
2021/07/11 02:28:37;;;;;;;98.53;40.15;;;;;;;16.15;87.78;101731.75;5018693;28;20115;-52
2021/07/11 02:31:05;;;;;;;83.63;35.83;;;;;;;16.16;87.65;101740.53;5026248;28;20025;-49
2021/07/11 02:33:36;;;;;;;100.10;40.97;;;;;;;16.12;87.96;101742.25;5020150;28;20381;-49
2021/07/11 02:36:03;;;;;;;105.18;43.17;;;;;;;16.09;87.79;101736.09;5023474;28;20064;-49
2021/07/11 02:38:56;;;;;;;105.47;41.85;;;;;;;16.06;88.09;101744.84;5010653;28;20037;-48
2021/07/11 02:41:24;;;;;;;113.68;44.72;;;;;;;16.06;88.14;101747.47;5003037;28;20044;-51
2021/07/11 02:43:51;;;;;;;110.45;42.75;;;;;;;16.02;88.27;101745.72;5019180;28;20033;-52
2021/07/11 02:46:20;;;;;;;115.70;43.72;;;;;;;16.02;88.39;101736.94;5003634;28;20028;-49
2021/07/11 02:48:47;;;;;;;105.95;42.85;;;;;;;16.00;88.53;101731.66;5018904;28;20030;-47
2021/07/11 02:51:16;;;;;;;113.07;43.75;;;;;;;15.97;88.42;101736.03;5021322;28;20546;-47
2021/07/11 02:53:43;;;;;;;107.18;42.70;;;;;;;15.97;88.55;101736.03;5023803;28;20029;-52
2021/07/11 02:56:10;;;;;;;97.60;40.47;;;;;;;15.95;88.32;101741.28;5022312;28;20432;-48
2021/07/11 02:58:37;;;;;;;95.38;40.58;;;;;;;15.91;87.98;101739.53;5021582;28;20503;-50
2021/07/11 03:01:02;;;;;;;97.45;42.00;;;;;;;15.90;88.08;101735.13;5017189;28;20136;-48
2021/07/11 03:03:28;;;;;;;98.88;40.95;;;;;;;15.90;88.00;101732.50;5007939;28;20039;-49
2021/07/11 03:05:55;;;;;;;89.90;38.72;;;;;;;15.88;87.96;101735.97;5019726;28;20484;-51
2021/07/11 03:08:20;;;;;;;104.25;41.92;;;;;;;15.86;87.73;101738.59;5021009;28;20749;-48
2021/07/11 03:10:46;;;;;;;90.65;39.95;;;;;;;15.85;88.23;101735.97;5020495;28;20025;-52
2021/07/11 03:13:12;;;;;;;87.35;39.13;;;;;;;15.82;87.92;101735.06;5018155;28;20037;-48
2021/07/11 03:15:38;;;;;;;92.93;39.95;;;;;;;15.81;87.99;101729.81;5007331;28;20661;-48
2021/07/11 03:18:03;;;;;;;93.75;40.25;;;;;;;15.80;88.24;101728.91;5021685;28;20488;-52
2021/07/11 03:20:29;;;;;;;99.93;40.85;;;;;;;15.79;88.23;101729.81;5005426;28;20041;-49
2021/07/11 03:22:55;;;;;;;87.45;39.33;;;;;;;15.79;88.14;101731.56;5024466;28;20033;-48
2021/07/11 03:25:21;;;;;;;90.80;38.85;;;;;;;15.78;88.32;101728.06;5005622;28;20067;-48
2021/07/11 03:27:47;;;;;;;88.65;38.83;;;;;;;15.77;88.06;101726.28;5010594;28;20037;-48
2021/07/11 03:30:16;;;;;;;81.57;36.65;;;;;;;15.76;88.02;101719.28;5019475;28;20029;-51
2021/07/11 03:33:00;;;;;;;77.30;35.67;;;;;;;15.75;88.07;101720.13;5022439;28;20029;-51
2021/07/11 03:35:40;;;;;;;83.53;36.45;;;;;;;15.77;88.05;101726.28;5019372;28;20380;-49
2021/07/11 03:38:07;;;;;;;87.95;37.25;;;;;;;15.78;88.17;101729.81;5022754;28;20147;-50
2021/07/11 03:40:35;;;;;;;85.53;36.20;;;;;;;15.77;88.06;101726.28;5021333;28;20618;-47
2021/07/11 03:43:07;;;;;;;78.63;36.13;;;;;;;15.75;87.78;101728.03;5008067;28;20049;-52
2021/07/11 03:45:33;;;;;;;73.30;33.65;;;;;;;15.75;87.78;101728.03;5020323;28;20029;-49
2021/07/11 03:48:12;;;;;;;80.00;36.50;;;;;;;15.78;87.96;101727.19;5008516;28;20558;-49
2021/07/11 03:50:40;;;;;;;88.85;36.75;;;;;;;15.79;88.15;101728.94;5027472;28;20458;-48
2021/07/11 03:53:07;;;;;;;71.38;34.83;;;;;;;15.78;87.90;101725.44;5024432;28;20060;-48
2021/07/11 03:55:34;;;;;;;73.40;35.15;;;;;;;15.79;87.90;101735.06;5027994;28;20119;-49
2021/07/11 03:58:00;;;;;;;69.38;32.45;;;;;;;15.79;87.60;101723.69;5003862;28;20121;-51
2021/07/11 04:00:26;;;;;;;64.30;31.45;;;;;;;15.75;87.15;101714.00;5022248;28;20033;-48
2021/07/11 04:02:52;;;;;;;68.22;32.20;;;;;;;15.77;87.33;101707.88;5008448;28;20033;-48
2021/07/11 04:05:21;;;;;;;68.20;30.90;;;;;;;15.79;87.42;101708.78;5007289;28;20704;-49
2021/07/11 04:07:49;;;;;;;76.63;34.35;;;;;;;15.82;87.63;101707.91;5014895;28;20087;-49
2021/07/11 04:10:14;;;;;;;68.88;32.40;;;;;;;15.82;87.70;101700.91;5008891;28;20029;-51
2021/07/11 04:12:40;;;;;;;66.50;32.25;;;;;;;15.83;88.07;101697.41;5011044;28;20036;-48
2021/07/11 04:15:06;;;;;;;66.20;32.17;;;;;;;15.85;87.95;101697.41;5019737;28;20064;-48
2021/07/11 04:17:32;;;;;;;69.53;32.78;;;;;;;15.85;87.84;101694.78;5007698;28;20040;-52
2021/07/11 04:20:01;;;;;;;61.67;30.92;;;;;;;15.85;87.59;101696.53;5010531;28;20047;-51
2021/07/11 04:22:27;;;;;;;66.32;32.10;;;;;;;15.88;87.75;101686.00;5005463;28;20033;-53
2021/07/11 04:24:53;;;;;;;71.22;33.35;;;;;;;15.88;87.37;101678.13;5021888;28;20492;-52
2021/07/11 04:27:20;;;;;;;63.80;31.73;;;;;;;15.88;87.71;101681.63;5020534;28;20041;-54
2021/07/11 04:29:45;;;;;;;68.88;32.80;;;;;;;15.86;87.49;101685.16;5022034;28;20079;-49
2021/07/11 04:32:11;;;;;;;66.75;32.08;;;;;;;15.83;88.07;101693.91;5007765;28;20552;-47
2021/07/11 04:34:39;;;;;;;69.47;33.75;;;;;;;15.76;87.73;101686.84;5026624;28;20520;-49
2021/07/11 04:37:07;;;;;;;67.20;32.45;;;;;;;15.71;87.99;101680.69;5020793;28;20056;-50
2021/07/11 04:39:33;;;;;;;65.55;31.38;;;;;;;15.65;87.75;101680.66;5027532;28;20044;-51
2021/07/11 04:41:59;;;;;;;67.18;32.25;;;;;;;15.63;87.97;101669.25;5006352;28;20068;-48
2021/07/11 04:44:26;;;;;;;65.63;31.35;;;;;;;15.62;87.29;101673.63;5019599;28;20028;-52
2021/07/11 04:46:51;;;;;;;67.88;33.35;;;;;;;15.63;87.61;101667.50;5027371;28;20025;-50
2021/07/11 04:49:17;;;;;;;69.38;32.88;;;;;;;15.63;87.64;101666.63;5020134;28;20029;-50
2021/07/11 04:51:42;;;;;;;64.47;32.40;;;;;;;15.65;87.55;101680.66;5012764;28;20545;-50
2021/07/11 04:54:08;;;;;;;61.75;32.20;;;;;;;15.65;86.99;101675.41;5017963;28;20090;-49
2021/07/11 04:56:34;;;;;;;67.00;32.40;;;;;;;15.69;87.33;101683.28;5023633;28;20037;-52
2021/07/11 04:59:00;;;;;;;63.08;31.60;;;;;;;15.73;87.12;101686.84;5019503;28;20068;-48
2021/07/11 05:01:26;;;;;;;66.20;33.38;;;;;;;15.71;86.78;101686.81;5023951;28;20465;-47
2021/07/11 05:03:52;;;;;;;63.58;33.15;;;;;;;15.71;86.95;101681.56;5026276;28;20579;-51
2021/07/11 05:06:18;;;;;;;62.80;31.80;;;;;;;15.72;86.82;101674.56;5020804;28;20118;-53
2021/07/11 05:08:43;;;;;;;67.57;33.15;;;;;;;15.73;86.80;101690.34;5028410;28;20480;-49
2021/07/11 05:11:08;;;;;;;67.95;34.78;;;;;;;15.74;86.85;101693.81;5024121;28;20493;-53
2021/07/11 05:13:34;;;;;;;65.53;33.08;;;;;;;15.79;87.15;101698.28;5023624;28;20009;-49
2021/07/11 05:15:59;;;;;;;70.70;34.90;;;;;;;15.85;87.01;101707.06;5023886;28;20456;-49
2021/07/11 05:18:25;;;;;;;70.70;33.80;;;;;;;15.91;87.25;101709.72;5011415;28;20728;-50
2021/07/11 05:20:50;;;;;;;63.95;32.13;;;;;;;15.94;86.63;101714.97;5026111;28;20044;-50
2021/07/11 05:23:15;;;;;;;65.85;32.65;;;;;;;16.02;86.70;101708.00;5020258;28;20603;-50
2021/07/11 05:25:41;;;;;;;66.75;33.05;;;;;;;16.09;86.75;101705.41;5024714;28;20025;-48
2021/07/11 05:28:06;;;;;;;67.47;32.92;;;;;;;16.18;86.77;101707.19;5021046;28;20117;-49
2021/07/11 05:30:32;;;;;;;65.10;33.95;;;;;;;16.26;86.76;101712.47;5025025;28;20061;-48
2021/07/11 05:32:58;;;;;;;59.63;31.45;;;;;;;16.28;86.18;101714.25;5024130;28;20033;-48
2021/07/11 05:35:24;;;;;;;60.10;31.90;;;;;;;16.37;86.06;101714.28;5023269;28;20103;-49
2021/07/11 05:37:49;;;;;;;52.17;28.98;;;;;;;16.35;84.17;101718.63;5026734;28;20686;-49
2021/07/11 05:40:17;;;;;;;54.38;30.73;;;;;;;16.42;84.33;101723.06;5023619;28;20098;-52
2021/07/11 05:42:43;;;;;;;67.07;33.42;;;;;;;16.46;85.67;101721.31;5024358;28;20033;-50
2021/07/11 05:45:09;;;;;;;70.20;33.95;;;;;;;16.50;86.15;101723.97;5004601;28;20402;-51
2021/07/11 05:47:35;;;;;;;56.13;30.13;;;;;;;16.53;85.77;101723.94;5010725;28;20033;-51
2021/07/11 05:50:00;;;;;;;60.30;31.05;;;;;;;16.55;85.33;101726.59;5023818;28;20039;-51
2021/07/11 05:52:26;;;;;;;59.85;31.55;;;;;;;16.55;84.87;101724.84;5001590;28;20289;-51
2021/07/11 05:54:52;;;;;;;64.43;33.33;;;;;;;16.59;85.54;101717.81;5018626;28;20017;-52
2021/07/11 05:57:18;;;;;;;65.72;33.45;;;;;;;16.56;85.46;101726.59;5020730;28;20401;-52
2021/07/11 05:59:44;;;;;;;70.85;34.42;;;;;;;16.55;85.86;101737.13;5024621;28;20020;-51
2021/07/11 06:02:09;;;;;;;72.20;34.67;;;;;;;16.50;86.08;101736.25;5018661;28;20969;-52
2021/07/11 06:04:35;;;;;;;74.65;35.47;;;;;;;16.46;86.36;101738.00;5021205;28;20090;-51
2021/07/11 06:07:00;;;;;;;79.68;36.10;;;;;;;16.43;87.08;101737.09;5018776;28;20113;-52
2021/07/11 06:09:25;;;;;;;87.45;39.08;;;;;;;16.38;87.49;101744.97;5021035;28;20036;-51
2021/07/11 06:11:51;;;;;;;92.35;39.28;;;;;;;16.34;87.72;101748.50;5019189;28;20036;-49
2021/07/11 06:14:16;;;;;;;84.03;37.92;;;;;;;16.34;87.61;101755.50;5020795;28;20405;-51
2021/07/11 06:16:42;;;;;;;89.05;38.22;;;;;;;16.33;87.75;101753.75;5020219;28;20511;-53
2021/07/11 06:19:07;;;;;;;82.10;37.08;;;;;;;16.34;87.88;101760.75;5018140;28;20059;-50
2021/07/11 06:21:32;;;;;;;86.22;37.88;;;;;;;16.34;88.01;101766.03;5024352;28;20043;-49
2021/07/11 06:23:58;;;;;;;84.18;37.45;;;;;;;16.35;87.81;101768.63;5021979;28;20419;-49
2021/07/11 06:26:24;;;;;;;88.00;38.85;;;;;;;16.34;88.03;101784.44;5020953;28;20392;-50
2021/07/11 06:28:49;;;;;;;89.25;38.95;;;;;;;16.32;88.33;101788.81;5021251;28;20059;-47
2021/07/11 06:31:14;;;;;;;79.72;35.65;;;;;;;16.31;88.22;101782.66;5017103;28;20100;-49
2021/07/11 06:33:40;;;;;;;78.38;36.80;;;;;;;16.29;87.66;101771.25;5020464;28;20035;-54
2021/07/11 06:36:05;;;;;;;74.60;35.53;;;;;;;16.30;87.39;101775.63;5017079;28;20025;-51
2021/07/11 06:38:30;;;;;;;78.82;36.50;;;;;;;16.30;87.38;101770.38;5021645;28;20029;-53
2021/07/11 06:40:56;;;;;;;76.65;35.20;;;;;;;16.30;87.59;101778.28;5017147;28;20478;-53
2021/07/11 06:43:21;;;;;;;74.28;34.70;;;;;;;16.30;87.44;101782.66;5021912;28;20029;-48
2021/07/11 06:45:46;;;;;;;69.28;34.55;;;;;;;16.30;86.94;101777.38;5013960;28;20473;-52
2021/07/11 06:48:12;;;;;;;73.13;34.83;;;;;;;16.31;87.03;101784.41;5020348;28;20029;-52
2021/07/11 06:50:40;;;;;;;68.55;35.00;;;;;;;16.30;86.92;101780.91;5018421;28;20038;-50
2021/07/11 06:53:05;;;;;;;74.20;35.40;;;;;;;16.31;87.17;101782.66;5017253;28;20034;-50
2021/07/11 06:55:31;;;;;;;73.00;35.08;;;;;;;16.32;87.62;101784.44;5022769;28;20040;-49
2021/07/11 06:57:56;;;;;;;73.45;35.58;;;;;;;16.34;87.40;101782.69;5021190;28;20469;-52
2021/07/11 07:00:21;;;;;;;71.95;35.28;;;;;;;16.35;87.48;101780.91;5022639;28;20500;-50
2021/07/11 07:02:47;;;;;;;74.85;35.60;;;;;;;16.34;87.25;101795.84;5023550;28;20449;-51
2021/07/11 07:05:12;;;;;;;70.25;35.63;;;;;;;16.34;87.22;101803.75;5018614;28;20028;-49
2021/07/11 07:07:39;;;;;;;72.75;34.97;;;;;;;16.35;86.88;101805.47;5020241;28;20025;-48
2021/07/11 07:10:07;;;;;;;73.35;37.33;;;;;;;16.35;87.03;101800.22;5019286;28;20037;-49
2021/07/11 07:12:34;;;;;;;76.07;37.65;;;;;;;16.39;87.17;101809.91;5026688;28;20135;-48
2021/07/11 07:14:59;;;;;;;73.78;36.78;;;;;;;16.42;86.83;101803.75;5015141;28;20028;-49
2021/07/11 07:17:24;;;;;;;72.22;37.28;;;;;;;16.46;86.42;101806.44;5020997;28;20914;-50
2021/07/11 07:19:50;;;;;;;76.63;38.13;;;;;;;16.51;86.60;101812.59;5029759;28;20059;-52
2021/07/11 07:22:15;;;;;;;73.50;37.38;;;;;;;16.55;86.77;101810.84;5027465;28;20075;-49
2021/07/11 07:24:40;;;;;;;72.28;37.45;;;;;;;16.60;86.49;101806.50;5026116;28;20479;-48
2021/07/11 07:27:06;;;;;;;79.95;39.35;;;;;;;16.64;86.51;101813.56;5023374;28;20041;-51
2021/07/11 07:29:31;;;;;;;75.43;39.10;;;;;;;16.69;86.38;101811.81;5026630;28;20128;-51
2021/07/11 07:31:56;;;;;;;77.70;39.10;;;;;;;16.75;86.16;101810.94;5025281;28;20388;-50
2021/07/11 07:34:23;;;;;;;84.28;41.17;;;;;;;16.81;86.32;101810.97;5024513;28;20026;-48
2021/07/11 07:36:48;;;;;;;73.95;38.10;;;;;;;16.85;86.22;101808.34;5024662;28;20025;-50
2021/07/11 07:39:14;;;;;;;72.28;38.13;;;;;;;16.87;85.73;101809.22;5025321;28;20063;-50
2021/07/11 07:41:39;;;;;;;81.63;40.95;;;;;;;16.91;86.05;101813.63;5026431;28;20581;-52
2021/07/11 07:44:07;;;;;;;87.90;42.53;;;;;;;16.93;86.17;101809.25;5021288;28;20202;-48
2021/07/11 07:46:33;;;;;;;87.97;41.70;;;;;;;16.93;86.17;101811.00;5026935;28;20054;-50
2021/07/11 07:48:58;;;;;;;88.30;42.63;;;;;;;16.90;86.10;101805.69;5024497;28;20065;-50
2021/07/11 07:51:24;;;;;;;87.13;42.70;;;;;;;16.88;86.32;101813.63;5028131;28;20021;-50
2021/07/11 07:53:49;;;;;;;86.60;42.50;;;;;;;16.85;85.85;101817.97;5026223;28;20136;-49
2021/07/11 07:56:14;;;;;;;85.70;41.60;;;;;;;16.81;85.72;101817.13;5021553;28;20143;-52
2021/07/11 07:58:40;;;;;;;93.55;44.28;;;;;;;16.77;86.13;101812.69;5026059;28;20056;-52
2021/07/11 08:01:05;;;;;;;93.45;43.33;;;;;;;16.73;86.49;101818.84;5022502;28;20128;-48
2021/07/11 08:03:31;;;;;;;94.22;43.85;;;;;;;16.74;86.48;101827.63;5022184;28;20029;-53
2021/07/11 08:05:56;;;;;;;91.75;43.60;;;;;;;16.70;86.45;101826.75;5019516;28;20061;-50
2021/07/11 08:08:22;;;;;;;83.88;41.13;;;;;;;16.71;86.34;101815.31;5026865;28;20022;-48
2021/07/11 08:10:47;;;;;;;90.20;44.22;;;;;;;16.71;86.64;101817.94;5025902;28;20525;-49
2021/07/11 08:13:12;;;;;;;89.60;42.08;;;;;;;16.76;86.52;101823.25;5011136;28;20572;-50
2021/07/11 08:15:38;;;;;;;91.68;43.38;;;;;;;16.81;86.76;101818.88;5025341;28;20087;-48
2021/07/11 08:18:04;;;;;;;78.85;39.33;;;;;;;16.89;86.27;101814.50;5023465;28;20039;-50
2021/07/11 08:20:29;;;;;;;86.72;41.85;;;;;;;16.93;85.96;101816.25;5025062;28;20083;-49
2021/07/11 08:22:54;;;;;;;87.57;42.72;;;;;;;17.36;85.41;101820.72;5020822;28;20026;-51
2021/07/11 08:25:20;;;;;;;83.20;40.10;;;;;;;17.70;83.50;101811.06;5024432;28;20032;-50
2021/07/11 08:27:46;;;;;;;78.90;40.08;;;;;;;17.30;84.41;101820.72;5017207;28;20413;-50
2021/07/11 08:30:13;;;;;;;79.90;39.30;;;;;;;17.24;85.12;101819.81;5004647;28;20625;-54
2021/07/11 08:32:39;;;;;;;79.47;41.17;;;;;;;17.27;85.54;101823.31;5026406;28;20158;-49
2021/07/11 08:35:06;;;;;;;75.47;39.28;;;;;;;17.40;85.32;101826.84;5019371;28;20065;-49
2021/07/11 08:37:31;;;;;;;81.68;40.15;;;;;;;17.42;85.19;101831.25;5023409;28;20619;-51
2021/07/11 08:39:57;;;;;;;70.30;37.58;;;;;;;17.46;84.09;101826.84;5005291;28;20142;-50
2021/07/11 08:42:23;;;;;;;74.43;38.10;;;;;;;17.54;83.94;101826.88;5024119;28;20052;-52
2021/07/11 08:44:51;;;;;;;70.85;37.50;;;;;;;17.54;83.97;101825.13;5022158;28;20032;-49
2021/07/11 08:47:16;;;;;;;71.45;38.00;;;;;;;17.60;84.66;101827.78;5023952;28;20475;-51
2021/07/11 08:49:41;;;;;;;73.05;38.03;;;;;;;17.69;84.10;101821.59;5027727;28;20029;-53
2021/07/11 08:52:06;;;;;;;70.78;37.85;;;;;;;17.83;83.63;101826.00;5000931;28;20136;-53
2021/07/11 08:54:32;;;;;;;62.40;34.42;;;;;;;18.05;83.78;101828.63;5024336;28;20356;-51
2021/07/11 08:56:58;;;;;;;68.15;37.08;;;;;;;18.18;82.69;101831.19;5022091;28;20944;-49
2021/07/11 08:59:26;;;;;;;69.20;35.90;;;;;;;18.40;81.79;101825.88;5021561;28;20469;-50
2021/07/11 09:01:52;;;;;;;62.10;34.58;;;;;;;18.71;81.55;101818.72;5020873;28;20136;-51
2021/07/11 09:04:17;;;;;;;62.80;33.90;;;;;;;19.01;80.55;101808.84;5019465;28;20032;-51
2021/07/11 09:06:48;;;;;;;57.70;33.03;;;;;;;19.13;78.13;101802.59;5024834;28;20279;-53
2021/07/11 09:09:24;;;;;;;58.20;32.60;;;;;;;19.41;78.96;101809.44;5019097;28;20084;-51
2021/07/11 09:11:52;;;;;;;47.15;27.98;;;;;;;19.64;77.96;101813.69;5026858;28;20060;-49
2021/07/11 09:14:20;;;;;;;47.22;28.70;;;;;;;19.67;74.72;101814.53;4998727;28;20103;-49
2021/07/11 09:16:46;;;;;;;47.80;27.58;;;;;;;19.81;75.71;101815.28;5021510;28;20032;-51
2021/07/11 09:19:21;;;;;;;47.13;27.45;;;;;;;20.12;75.57;101815.84;5023506;28;20052;-52
2021/07/11 09:22:14;;;;;;;41.67;26.38;;;;;;;20.41;73.64;101809.38;5024986;28;20086;-52
2021/07/11 09:24:55;;;;;;;39.25;24.33;;;;;;;21.07;73.15;101807.56;5015788;28;20607;-51
2021/07/11 09:27:29;;;;;;;43.72;24.08;;;;;;;21.49;73.24;101810.47;5021936;28;20077;-48
2021/07/11 09:30:04;;;;;;;34.85;22.08;;;;;;;21.88;71.20;101820.41;5021006;28;20206;-50
2021/07/11 09:32:31;;;;;;;31.90;20.90;;;;;;;22.13;67.54;101815.53;5021288;28;20098;-47
2021/07/11 09:35:12;;;;;;;30.92;20.52;;;;;;;22.33;66.84;101816.00;5019139;28;20429;-50
2021/07/11 09:37:39;;;;;;;27.67;19.65;;;;;;;21.92;66.20;101815.88;5021126;28;20879;-51
2021/07/11 09:40:06;;;;;;;25.40;17.02;;;;;;;21.98;65.78;101818.47;5022137;28;20428;-52
2021/07/11 09:42:34;;;;;;;29.83;20.00;;;;;;;22.33;65.68;101813.34;5019999;28;20476;-52
2021/07/11 09:45:03;;;;;;;27.55;19.00;;;;;;;22.48;64.16;101806.84;5018908;28;20475;-51
2021/07/11 09:47:30;;;;;;;26.52;18.77;;;;;;;22.27;63.44;101811.69;5015741;28;20056;-52
2021/07/11 09:49:57;;;;;;;26.40;18.70;;;;;;;22.26;64.90;101812.59;5001049;28;21303;-51
2021/07/11 09:52:22;;;;;;;24.00;16.98;;;;;;;22.23;62.67;101817.97;5022396;28;20098;-49
2021/07/11 09:55:08;;;;;;;23.80;17.05;;;;;;;22.37;63.21;101816.81;4999002;28;20457;-50
2021/07/11 09:57:36;;;;;;;25.20;17.17;;;;;;;22.64;65.25;101817.09;5020858;28;20060;-49
2021/07/11 10:00:35;;;;;;;21.52;15.88;;;;;;;22.55;59.58;101814.66;5017963;28;20025;-52
2021/07/11 10:03:12;;;;;;;22.45;15.23;;;;;;;22.74;61.76;101807.19;5020863;28;20025;-51
2021/07/11 10:05:41;;;;;;;21.73;15.55;;;;;;;23.15;59.05;101805.38;5015866;28;20032;-48
2021/07/11 10:08:07;;;;;;;21.23;15.98;;;;;;;23.42;58.84;101810.03;5019737;28;20044;-50
2021/07/11 10:10:34;;;;;;;20.88;15.52;;;;;;;23.69;58.88;101808.47;5020082;28;20120;-49
2021/07/11 10:13:01;;;;;;;20.98;15.68;;;;;;;23.43;59.64;101803.75;5023863;28;20037;-47
2021/07/11 10:15:30;;;;;;;20.70;14.93;;;;;;;23.90;58.06;101807.03;4997086;28;20041;-50
2021/07/11 10:18:26;;;;;;;23.45;16.50;;;;;;;23.79;56.29;101793.97;5004176;28;20037;-50
2021/07/11 10:20:57;;;;;;;18.35;13.90;;;;;;;23.52;58.84;101800.03;5008763;28;20045;-52
2021/07/11 10:23:27;;;;;;;23.20;16.50;;;;;;;23.38;61.17;101795.03;5019035;28;20565;-49
2021/07/11 10:26:08;;;;;;;21.73;15.45;;;;;;;23.80;62.58;101795.75;5021858;28;20029;-50
2021/07/11 10:28:36;;;;;;;20.92;15.35;;;;;;;24.05;57.05;101795.94;5021209;28;20084;-50
2021/07/11 10:31:03;;;;;;;22.50;15.95;;;;;;;24.20;58.21;101787.56;5023476;28;20041;-51
2021/07/11 10:33:29;;;;;;;19.98;15.45;;;;;;;24.14;58.53;101788.59;5015330;28;20269;-51
2021/07/11 10:35:59;;;;;;;22.30;16.50;;;;;;;23.97;57.50;101795.31;5007512;28;20081;-53
2021/07/11 10:38:30;;;;;;;23.08;17.02;;;;;;;23.59;56.84;101798.97;5019117;28;20404;-51
2021/07/11 10:41:17;;;;;;;26.50;18.58;;;;;;;22.60;60.11;101795.94;5021057;28;20148;-50
2021/07/11 10:43:58;;;;;;;25.70;18.38;;;;;;;22.41;60.87;101792.81;5020911;28;20108;-48
2021/07/11 10:46:30;;;;;;;26.08;18.45;;;;;;;22.23;60.39;101791.41;5011833;28;20492;-50
2021/07/11 10:48:55;;;;;;;28.20;19.45;;;;;;;22.45;62.94;101790.94;5017441;28;20176;-51
2021/07/11 10:51:21;;;;;;;25.88;18.92;;;;;;;22.28;60.00;101786.00;5021263;28;20159;-50
2021/07/11 10:53:46;;;;;;;27.88;19.55;;;;;;;22.14;60.47;101796.03;5022823;28;20634;-50
2021/07/11 10:56:18;;;;;;;27.25;19.52;;;;;;;22.48;63.54;101796.22;5018658;28;20025;-51
2021/07/11 10:58:47;;;;;;;25.23;16.83;;;;;;;22.65;61.36;101792.28;5022509;28;20025;-51
2021/07/11 11:01:17;;;;;;;23.15;16.77;;;;;;;22.43;60.76;101803.41;5020342;28;20059;-49
2021/07/11 11:03:52;;;;;;;24.90;16.85;;;;;;;22.56;61.36;101794.28;5021031;28;20025;-52
2021/07/11 11:06:20;;;;;;;25.17;17.65;;;;;;;22.74;59.16;101803.66;5017328;28;20029;-48
2021/07/11 11:08:47;;;;;;;22.25;16.88;;;;;;;22.47;61.90;101792.69;5021678;28;20024;-48
2021/07/11 11:11:13;;;;;;;26.63;18.50;;;;;;;22.34;62.90;101800.94;5022391;28;20474;-50